sensor_id;sensor_type;location;lat;lon;timestamp;P1;durP1;ratioP1;P2;durP2;ratioP2
55170;SDS011;41060;47.510;8.680;2022-12-07T00:01:46;15.15;;;6.10;;
55170;SDS011;41060;47.510;8.680;2022-12-07T00:04:16;15.70;;;7.82;;
55170;SDS011;41060;47.510;8.680;2022-12-07T00:06:44;10.55;;;5.78;;
55170;SDS011;41060;47.510;8.680;2022-12-07T00:09:15;7.53;;;6.47;;
55170;SDS011;41060;47.510;8.680;2022-12-07T00:11:43;14.30;;;6.43;;
55170;SDS011;41060;47.510;8.680;2022-12-07T00:14:11;10.02;;;6.90;;
55170;SDS011;41060;47.510;8.680;2022-12-07T00:16:40;12.73;;;7.32;;
55170;SDS011;41060;47.510;8.680;2022-12-07T00:19:08;11.52;;;6.18;;
55170;SDS011;41060;47.510;8.680;2022-12-07T00:21:36;12.23;;;6.65;;
55170;SDS011;41060;47.510;8.680;2022-12-07T00:24:04;12.20;;;6.80;;
55170;SDS011;41060;47.510;8.680;2022-12-07T00:26:32;14.77;;;4.90;;
55170;SDS011;41060;47.510;8.680;2022-12-07T00:29:02;14.35;;;8.00;;
55170;SDS011;41060;47.510;8.680;2022-12-07T00:31:31;8.32;;;4.75;;
55170;SDS011;41060;47.510;8.680;2022-12-07T00:36:30;12.55;;;5.18;;
55170;SDS011;41060;47.510;8.680;2022-12-07T00:39:00;12.38;;;5.50;;
55170;SDS011;41060;47.510;8.680;2022-12-07T00:41:28;11.85;;;5.47;;
55170;SDS011;41060;47.510;8.680;2022-12-07T00:43:55;15.50;;;7.53;;
55170;SDS011;41060;47.510;8.680;2022-12-07T00:46:22;14.35;;;6.68;;
55170;SDS011;41060;47.510;8.680;2022-12-07T00:48:51;8.07;;;4.13;;
55170;SDS011;41060;47.510;8.680;2022-12-07T00:51:19;12.10;;;7.10;;
55170;SDS011;41060;47.510;8.680;2022-12-07T00:53:47;12.85;;;6.47;;
55170;SDS011;41060;47.510;8.680;2022-12-07T00:56:16;6.78;;;4.82;;
55170;SDS011;41060;47.510;8.680;2022-12-07T00:58:49;12.40;;;7.68;;
55170;SDS011;41060;47.510;8.680;2022-12-07T01:01:17;9.40;;;4.53;;
55170;SDS011;41060;47.510;8.680;2022-12-07T01:03:46;12.13;;;5.18;;
55170;SDS011;41060;47.510;8.680;2022-12-07T01:06:13;16.63;;;6.35;;
55170;SDS011;41060;47.510;8.680;2022-12-07T01:08:41;12.45;;;4.68;;
55170;SDS011;41060;47.510;8.680;2022-12-07T01:11:09;11.77;;;5.47;;
55170;SDS011;41060;47.510;8.680;2022-12-07T01:13:43;11.32;;;8.15;;
55170;SDS011;41060;47.510;8.680;2022-12-07T01:16:10;9.82;;;6.32;;
55170;SDS011;41060;47.510;8.680;2022-12-07T01:18:38;15.80;;;6.53;;
55170;SDS011;41060;47.510;8.680;2022-12-07T01:21:10;10.55;;;6.30;;
55170;SDS011;41060;47.510;8.680;2022-12-07T01:23:41;15.02;;;5.78;;
55170;SDS011;41060;47.510;8.680;2022-12-07T01:26:12;9.02;;;6.13;;
55170;SDS011;41060;47.510;8.680;2022-12-07T01:28:41;10.80;;;5.43;;
55170;SDS011;41060;47.510;8.680;2022-12-07T01:31:10;10.00;;;5.85;;
55170;SDS011;41060;47.510;8.680;2022-12-07T01:33:40;8.23;;;6.07;;
55170;SDS011;41060;47.510;8.680;2022-12-07T01:36:13;11.85;;;6.57;;
55170;SDS011;41060;47.510;8.680;2022-12-07T01:38:42;12.00;;;6.18;;
55170;SDS011;41060;47.510;8.680;2022-12-07T01:41:09;9.60;;;7.72;;
55170;SDS011;41060;47.510;8.680;2022-12-07T01:44:06;11.90;;;7.75;;
55170;SDS011;41060;47.510;8.680;2022-12-07T01:46:43;11.70;;;6.07;;
55170;SDS011;41060;47.510;8.680;2022-12-07T01:49:11;10.25;;;6.75;;
55170;SDS011;41060;47.510;8.680;2022-12-07T01:51:42;10.52;;;6.00;;
55170;SDS011;41060;47.510;8.680;2022-12-07T01:54:11;16.27;;;5.95;;
55170;SDS011;41060;47.510;8.680;2022-12-07T01:56:40;14.48;;;7.80;;
55170;SDS011;41060;47.510;8.680;2022-12-07T01:59:11;13.70;;;7.30;;
55170;SDS011;41060;47.510;8.680;2022-12-07T02:01:40;12.18;;;7.05;;
55170;SDS011;41060;47.510;8.680;2022-12-07T02:04:07;12.38;;;6.00;;
55170;SDS011;41060;47.510;8.680;2022-12-07T02:06:35;13.32;;;5.97;;
55170;SDS011;41060;47.510;8.680;2022-12-07T02:09:02;13.68;;;5.60;;
55170;SDS011;41060;47.510;8.680;2022-12-07T02:11:30;13.45;;;5.82;;
55170;SDS011;41060;47.510;8.680;2022-12-07T02:13:57;16.58;;;7.47;;
55170;SDS011;41060;47.510;8.680;2022-12-07T02:16:28;15.95;;;7.43;;
55170;SDS011;41060;47.510;8.680;2022-12-07T02:19:24;12.23;;;5.13;;
55170;SDS011;41060;47.510;8.680;2022-12-07T02:22:18;10.55;;;7.47;;
55170;SDS011;41060;47.510;8.680;2022-12-07T02:25:03;8.55;;;5.45;;
55170;SDS011;41060;47.510;8.680;2022-12-07T02:27:39;12.50;;;5.05;;
55170;SDS011;41060;47.510;8.680;2022-12-07T02:30:14;13.45;;;5.55;;
55170;SDS011;41060;47.510;8.680;2022-12-07T02:32:48;20.83;;;9.18;;
55170;SDS011;41060;47.510;8.680;2022-12-07T02:35:23;14.98;;;7.80;;
55170;SDS011;41060;47.510;8.680;2022-12-07T02:37:58;9.45;;;5.95;;
55170;SDS011;41060;47.510;8.680;2022-12-07T02:40:31;12.23;;;5.70;;
55170;SDS011;41060;47.510;8.680;2022-12-07T02:43:02;15.02;;;8.80;;
55170;SDS011;41060;47.510;8.680;2022-12-07T02:45:35;10.02;;;4.97;;
55170;SDS011;41060;47.510;8.680;2022-12-07T02:48:04;13.32;;;7.40;;
55170;SDS011;41060;47.510;8.680;2022-12-07T02:50:36;10.25;;;6.22;;
55170;SDS011;41060;47.510;8.680;2022-12-07T02:53:03;10.88;;;5.68;;
55170;SDS011;41060;47.510;8.680;2022-12-07T02:55:30;13.43;;;8.00;;
55170;SDS011;41060;47.510;8.680;2022-12-07T02:58:05;14.68;;;7.60;;
55170;SDS011;41060;47.510;8.680;2022-12-07T03:00:46;11.60;;;6.75;;
55170;SDS011;41060;47.510;8.680;2022-12-07T03:03:21;12.90;;;6.38;;
55170;SDS011;41060;47.510;8.680;2022-12-07T03:05:53;13.98;;;7.15;;
55170;SDS011;41060;47.510;8.680;2022-12-07T03:08:30;8.18;;;5.45;;
55170;SDS011;41060;47.510;8.680;2022-12-07T03:11:05;10.05;;;6.50;;
55170;SDS011;41060;47.510;8.680;2022-12-07T03:13:37;11.25;;;5.90;;
55170;SDS011;41060;47.510;8.680;2022-12-07T03:16:10;19.05;;;8.57;;
55170;SDS011;41060;47.510;8.680;2022-12-07T03:18:43;19.20;;;7.07;;
55170;SDS011;41060;47.510;8.680;2022-12-07T03:21:18;10.45;;;5.13;;
55170;SDS011;41060;47.510;8.680;2022-12-07T03:23:48;13.10;;;7.00;;
55170;SDS011;41060;47.510;8.680;2022-12-07T03:26:17;8.70;;;4.88;;
55170;SDS011;41060;47.510;8.680;2022-12-07T03:28:49;14.05;;;6.03;;
55170;SDS011;41060;47.510;8.680;2022-12-07T03:31:21;14.18;;;7.38;;
55170;SDS011;41060;47.510;8.680;2022-12-07T03:33:53;9.27;;;5.40;;
55170;SDS011;41060;47.510;8.680;2022-12-07T03:36:25;19.08;;;6.15;;
55170;SDS011;41060;47.510;8.680;2022-12-07T03:38:57;16.13;;;6.22;;
55170;SDS011;41060;47.510;8.680;2022-12-07T03:41:30;11.10;;;7.32;;
55170;SDS011;41060;47.510;8.680;2022-12-07T03:44:00;12.02;;;5.10;;
55170;SDS011;41060;47.510;8.680;2022-12-07T03:46:32;9.32;;;6.03;;
55170;SDS011;41060;47.510;8.680;2022-12-07T03:49:08;8.48;;;5.45;;
55170;SDS011;41060;47.510;8.680;2022-12-07T03:51:43;15.60;;;7.00;;
55170;SDS011;41060;47.510;8.680;2022-12-07T03:54:17;18.40;;;8.48;;
55170;SDS011;41060;47.510;8.680;2022-12-07T03:56:49;14.65;;;6.47;;
55170;SDS011;41060;47.510;8.680;2022-12-07T03:59:20;12.82;;;6.97;;
55170;SDS011;41060;47.510;8.680;2022-12-07T04:01:52;12.85;;;5.78;;
55170;SDS011;41060;47.510;8.680;2022-12-07T04:04:21;15.27;;;7.55;;
55170;SDS011;41060;47.510;8.680;2022-12-07T04:06:47;11.35;;;6.97;;
55170;SDS011;41060;47.510;8.680;2022-12-07T04:09:14;10.90;;;6.97;;
55170;SDS011;41060;47.510;8.680;2022-12-07T04:11:42;12.85;;;6.00;;
55170;SDS011;41060;47.510;8.680;2022-12-07T04:14:11;11.20;;;5.95;;
55170;SDS011;41060;47.510;8.680;2022-12-07T04:16:47;12.70;;;7.18;;
55170;SDS011;41060;47.510;8.680;2022-12-07T04:19:17;11.27;;;6.97;;
55170;SDS011;41060;47.510;8.680;2022-12-07T04:21:45;17.50;;;7.18;;
55170;SDS011;41060;47.510;8.680;2022-12-07T04:24:13;15.05;;;6.55;;
55170;SDS011;41060;47.510;8.680;2022-12-07T04:26:41;23.05;;;9.25;;
55170;SDS011;41060;47.510;8.680;2022-12-07T04:29:08;15.30;;;8.07;;
55170;SDS011;41060;47.510;8.680;2022-12-07T04:31:35;14.23;;;6.80;;
55170;SDS011;41060;47.510;8.680;2022-12-07T04:34:02;12.77;;;6.07;;
55170;SDS011;41060;47.510;8.680;2022-12-07T04:36:30;10.88;;;6.45;;
55170;SDS011;41060;47.510;8.680;2022-12-07T04:38:58;16.25;;;7.90;;
55170;SDS011;41060;47.510;8.680;2022-12-07T04:41:25;14.40;;;7.07;;
55170;SDS011;41060;47.510;8.680;2022-12-07T04:43:53;13.82;;;5.35;;
55170;SDS011;41060;47.510;8.680;2022-12-07T04:46:21;14.77;;;6.00;;
55170;SDS011;41060;47.510;8.680;2022-12-07T04:48:50;12.43;;;6.30;;
55170;SDS011;41060;47.510;8.680;2022-12-07T04:51:18;12.27;;;7.25;;
55170;SDS011;41060;47.510;8.680;2022-12-07T04:53:48;12.07;;;6.28;;
55170;SDS011;41060;47.510;8.680;2022-12-07T04:56:15;13.32;;;7.13;;
55170;SDS011;41060;47.510;8.680;2022-12-07T04:58:42;15.27;;;7.15;;
55170;SDS011;41060;47.510;8.680;2022-12-07T05:01:10;8.77;;;5.68;;
55170;SDS011;41060;47.510;8.680;2022-12-07T05:03:37;10.98;;;6.32;;
55170;SDS011;41060;47.510;8.680;2022-12-07T05:06:07;10.65;;;6.35;;
55170;SDS011;41060;47.510;8.680;2022-12-07T05:08:35;11.93;;;5.55;;
55170;SDS011;41060;47.510;8.680;2022-12-07T05:11:04;19.17;;;7.32;;
55170;SDS011;41060;47.510;8.680;2022-12-07T05:13:35;12.63;;;6.65;;
55170;SDS011;41060;47.510;8.680;2022-12-07T05:16:02;12.07;;;7.05;;
55170;SDS011;41060;47.510;8.680;2022-12-07T05:18:30;42.00;;;8.60;;
55170;SDS011;41060;47.510;8.680;2022-12-07T05:20:57;16.00;;;6.78;;
55170;SDS011;41060;47.510;8.680;2022-12-07T05:23:24;17.60;;;7.47;;
55170;SDS011;41060;47.510;8.680;2022-12-07T05:25:50;10.50;;;6.85;;
55170;SDS011;41060;47.510;8.680;2022-12-07T05:28:19;13.75;;;7.57;;
55170;SDS011;41060;47.510;8.680;2022-12-07T05:30:45;20.17;;;6.07;;
55170;SDS011;41060;47.510;8.680;2022-12-07T05:33:12;21.63;;;9.40;;
55170;SDS011;41060;47.510;8.680;2022-12-07T05:35:41;17.52;;;7.38;;
55170;SDS011;41060;47.510;8.680;2022-12-07T05:38:08;18.05;;;8.70;;
55170;SDS011;41060;47.510;8.680;2022-12-07T05:40:34;12.27;;;7.88;;
55170;SDS011;41060;47.510;8.680;2022-12-07T05:43:03;12.57;;;7.57;;
55170;SDS011;41060;47.510;8.680;2022-12-07T05:45:31;14.27;;;7.72;;
55170;SDS011;41060;47.510;8.680;2022-12-07T05:47:57;16.30;;;7.88;;
55170;SDS011;41060;47.510;8.680;2022-12-07T05:50:25;11.77;;;6.97;;
55170;SDS011;41060;47.510;8.680;2022-12-07T05:52:54;13.27;;;8.30;;
55170;SDS011;41060;47.510;8.680;2022-12-07T05:55:20;14.10;;;6.55;;
55170;SDS011;41060;47.510;8.680;2022-12-07T05:57:48;17.00;;;7.25;;
55170;SDS011;41060;47.510;8.680;2022-12-07T06:00:28;14.82;;;7.22;;
55170;SDS011;41060;47.510;8.680;2022-12-07T06:02:59;19.42;;;7.80;;
55170;SDS011;41060;47.510;8.680;2022-12-07T06:05:26;12.88;;;5.88;;
55170;SDS011;41060;47.510;8.680;2022-12-07T06:07:52;14.10;;;7.32;;
55170;SDS011;41060;47.510;8.680;2022-12-07T06:10:20;15.57;;;6.47;;
55170;SDS011;41060;47.510;8.680;2022-12-07T06:12:46;17.27;;;8.13;;
55170;SDS011;41060;47.510;8.680;2022-12-07T06:15:12;14.88;;;8.95;;
55170;SDS011;41060;47.510;8.680;2022-12-07T06:17:41;18.58;;;7.70;;
55170;SDS011;41060;47.510;8.680;2022-12-07T06:20:07;17.25;;;6.78;;
55170;SDS011;41060;47.510;8.680;2022-12-07T06:22:34;23.83;;;9.30;;
55170;SDS011;41060;47.510;8.680;2022-12-07T06:25:01;18.10;;;8.60;;
55170;SDS011;41060;47.510;8.680;2022-12-07T06:27:29;10.88;;;6.57;;
55170;SDS011;41060;47.510;8.680;2022-12-07T06:29:56;10.98;;;6.63;;
55170;SDS011;41060;47.510;8.680;2022-12-07T06:32:23;10.27;;;7.38;;
55170;SDS011;41060;47.510;8.680;2022-12-07T06:34:51;17.48;;;6.70;;
55170;SDS011;41060;47.510;8.680;2022-12-07T06:37:18;11.05;;;6.15;;
55170;SDS011;41060;47.510;8.680;2022-12-07T06:39:48;13.52;;;8.02;;
55170;SDS011;41060;47.510;8.680;2022-12-07T06:42:14;10.80;;;5.90;;
55170;SDS011;41060;47.510;8.680;2022-12-07T06:44:41;11.88;;;7.65;;
55170;SDS011;41060;47.510;8.680;2022-12-07T06:47:08;13.07;;;7.70;;
55170;SDS011;41060;47.510;8.680;2022-12-07T06:49:36;14.30;;;6.45;;
55170;SDS011;41060;47.510;8.680;2022-12-07T06:52:04;11.32;;;6.43;;
55170;SDS011;41060;47.510;8.680;2022-12-07T06:54:31;13.10;;;6.45;;
55170;SDS011;41060;47.510;8.680;2022-12-07T06:56:58;13.70;;;7.95;;
55170;SDS011;41060;47.510;8.680;2022-12-07T06:59:27;14.13;;;7.15;;
55170;SDS011;41060;47.510;8.680;2022-12-07T07:01:54;12.20;;;6.45;;
55170;SDS011;41060;47.510;8.680;2022-12-07T07:04:21;18.02;;;6.75;;
55170;SDS011;41060;47.510;8.680;2022-12-07T07:06:47;16.55;;;8.30;;
55170;SDS011;41060;47.510;8.680;2022-12-07T07:09:16;14.35;;;6.93;;
55170;SDS011;41060;47.510;8.680;2022-12-07T07:11:42;22.08;;;8.38;;
55170;SDS011;41060;47.510;8.680;2022-12-07T07:14:09;17.25;;;8.63;;
55170;SDS011;41060;47.510;8.680;2022-12-07T07:16:36;11.82;;;7.38;;
55170;SDS011;41060;47.510;8.680;2022-12-07T07:19:02;14.00;;;7.72;;
55170;SDS011;41060;47.510;8.680;2022-12-07T07:21:29;13.55;;;8.13;;
55170;SDS011;41060;47.510;8.680;2022-12-07T07:23:57;15.45;;;7.38;;
55170;SDS011;41060;47.510;8.680;2022-12-07T07:26:25;9.68;;;6.10;;
55170;SDS011;41060;47.510;8.680;2022-12-07T07:28:51;9.95;;;7.57;;
55170;SDS011;41060;47.510;8.680;2022-12-07T07:31:18;15.73;;;7.15;;
55170;SDS011;41060;47.510;8.680;2022-12-07T07:33:45;9.07;;;7.28;;
55170;SDS011;41060;47.510;8.680;2022-12-07T07:36:12;14.43;;;7.10;;
55170;SDS011;41060;47.510;8.680;2022-12-07T07:38:39;15.13;;;8.25;;
55170;SDS011;41060;47.510;8.680;2022-12-07T07:41:06;13.13;;;7.55;;
55170;SDS011;41060;47.510;8.680;2022-12-07T07:43:36;15.88;;;7.57;;
55170;SDS011;41060;47.510;8.680;2022-12-07T07:46:03;16.85;;;8.35;;
55170;SDS011;41060;47.510;8.680;2022-12-07T07:48:30;14.40;;;6.35;;
55170;SDS011;41060;47.510;8.680;2022-12-07T07:50:57;13.93;;;6.00;;
55170;SDS011;41060;47.510;8.680;2022-12-07T07:53:24;10.40;;;4.97;;
55170;SDS011;41060;47.510;8.680;2022-12-07T07:55:51;16.52;;;7.38;;
55170;SDS011;41060;47.510;8.680;2022-12-07T07:58:18;13.75;;;8.10;;
55170;SDS011;41060;47.510;8.680;2022-12-07T08:00:48;15.15;;;7.00;;
55170;SDS011;41060;47.510;8.680;2022-12-07T08:03:15;16.33;;;7.47;;
55170;SDS011;41060;47.510;8.680;2022-12-07T08:05:42;15.55;;;7.35;;
55170;SDS011;41060;47.510;8.680;2022-12-07T08:08:09;14.05;;;7.15;;
55170;SDS011;41060;47.510;8.680;2022-12-07T08:10:35;8.80;;;6.43;;
55170;SDS011;41060;47.510;8.680;2022-12-07T08:13:02;13.93;;;8.13;;
55170;SDS011;41060;47.510;8.680;2022-12-07T08:15:42;18.65;;;6.38;;
55170;SDS011;41060;47.510;8.680;2022-12-07T08:18:11;12.73;;;7.50;;
55170;SDS011;41060;47.510;8.680;2022-12-07T08:20:44;12.52;;;5.63;;
55170;SDS011;41060;47.510;8.680;2022-12-07T08:23:10;16.25;;;6.78;;
55170;SDS011;41060;47.510;8.680;2022-12-07T08:25:37;11.13;;;7.60;;
55170;SDS011;41060;47.510;8.680;2022-12-07T08:28:05;28.45;;;6.63;;
55170;SDS011;41060;47.510;8.680;2022-12-07T08:30:32;27.52;;;7.43;;
55170;SDS011;41060;47.510;8.680;2022-12-07T08:32:59;14.30;;;9.32;;
55170;SDS011;41060;47.510;8.680;2022-12-07T08:35:27;13.57;;;6.78;;
55170;SDS011;41060;47.510;8.680;2022-12-07T08:37:54;16.13;;;8.40;;
55170;SDS011;41060;47.510;8.680;2022-12-07T08:40:22;11.57;;;5.47;;
55170;SDS011;41060;47.510;8.680;2022-12-07T08:42:49;19.38;;;7.80;;
55170;SDS011;41060;47.510;8.680;2022-12-07T08:45:17;13.40;;;6.53;;
55170;SDS011;41060;47.510;8.680;2022-12-07T08:47:46;15.18;;;6.13;;
55170;SDS011;41060;47.510;8.680;2022-12-07T08:50:17;11.32;;;6.32;;
55170;SDS011;41060;47.510;8.680;2022-12-07T08:52:45;12.27;;;5.85;;
55170;SDS011;41060;47.510;8.680;2022-12-07T08:55:15;14.65;;;7.63;;
55170;SDS011;41060;47.510;8.680;2022-12-07T08:57:43;17.33;;;7.85;;
55170;SDS011;41060;47.510;8.680;2022-12-07T09:00:10;10.90;;;6.60;;
55170;SDS011;41060;47.510;8.680;2022-12-07T09:02:37;11.85;;;6.53;;
55170;SDS011;41060;47.510;8.680;2022-12-07T09:05:05;12.68;;;5.93;;
55170;SDS011;41060;47.510;8.680;2022-12-07T09:07:32;10.35;;;6.00;;
55170;SDS011;41060;47.510;8.680;2022-12-07T09:10:01;11.70;;;6.97;;
55170;SDS011;41060;47.510;8.680;2022-12-07T09:12:29;12.27;;;6.88;;
55170;SDS011;41060;47.510;8.680;2022-12-07T09:14:56;13.35;;;5.97;;
55170;SDS011;41060;47.510;8.680;2022-12-07T09:17:23;20.00;;;7.55;;
55170;SDS011;41060;47.510;8.680;2022-12-07T09:19:50;10.23;;;6.90;;
55170;SDS011;41060;47.510;8.680;2022-12-07T09:22:19;11.52;;;5.80;;
55170;SDS011;41060;47.510;8.680;2022-12-07T09:24:45;13.75;;;6.85;;
55170;SDS011;41060;47.510;8.680;2022-12-07T09:27:14;15.43;;;7.18;;
55170;SDS011;41060;47.510;8.680;2022-12-07T09:29:43;15.40;;;6.88;;
55170;SDS011;41060;47.510;8.680;2022-12-07T09:32:13;16.83;;;8.20;;
55170;SDS011;41060;47.510;8.680;2022-12-07T09:34:42;13.73;;;7.05;;
55170;SDS011;41060;47.510;8.680;2022-12-07T09:37:09;14.05;;;6.35;;
55170;SDS011;41060;47.510;8.680;2022-12-07T09:39:37;10.48;;;5.90;;
55170;SDS011;41060;47.510;8.680;2022-12-07T09:42:04;10.52;;;6.80;;
55170;SDS011;41060;47.510;8.680;2022-12-07T09:44:39;16.27;;;9.32;;
55170;SDS011;41060;47.510;8.680;2022-12-07T09:47:07;19.25;;;6.13;;
55170;SDS011;41060;47.510;8.680;2022-12-07T09:49:36;12.25;;;7.03;;
55170;SDS011;41060;47.510;8.680;2022-12-07T09:52:16;12.02;;;5.05;;
55170;SDS011;41060;47.510;8.680;2022-12-07T09:54:46;11.98;;;6.50;;
55170;SDS011;41060;47.510;8.680;2022-12-07T09:57:15;13.52;;;7.03;;
55170;SDS011;41060;47.510;8.680;2022-12-07T09:59:44;13.60;;;6.22;;
55170;SDS011;41060;47.510;8.680;2022-12-07T10:02:19;13.80;;;7.43;;
55170;SDS011;41060;47.510;8.680;2022-12-07T10:04:51;14.63;;;6.38;;
55170;SDS011;41060;47.510;8.680;2022-12-07T10:07:18;7.95;;;5.35;;
55170;SDS011;41060;47.510;8.680;2022-12-07T10:09:45;12.68;;;6.53;;
55170;SDS011;41060;47.510;8.680;2022-12-07T10:12:11;18.65;;;7.88;;
55170;SDS011;41060;47.510;8.680;2022-12-07T10:14:39;13.73;;;6.60;;
55170;SDS011;41060;47.510;8.680;2022-12-07T10:17:29;15.65;;;7.88;;
55170;SDS011;41060;47.510;8.680;2022-12-07T10:22:59;11.30;;;6.85;;
55170;SDS011;41060;47.510;8.680;2022-12-07T10:25:29;17.73;;;6.60;;
55170;SDS011;41060;47.510;8.680;2022-12-07T10:27:59;13.73;;;7.25;;
55170;SDS011;41060;47.510;8.680;2022-12-07T10:30:30;10.13;;;5.18;;
55170;SDS011;41060;47.510;8.680;2022-12-07T10:33:00;10.05;;;5.88;;
55170;SDS011;41060;47.510;8.680;2022-12-07T10:35:30;17.90;;;6.60;;
55170;SDS011;41060;47.510;8.680;2022-12-07T10:37:58;12.27;;;7.15;;
55170;SDS011;41060;47.510;8.680;2022-12-07T10:40:30;11.55;;;6.60;;
55170;SDS011;41060;47.510;8.680;2022-12-07T10:43:15;18.75;;;7.43;;
55170;SDS011;41060;47.510;8.680;2022-12-07T10:45:55;11.23;;;6.03;;
55170;SDS011;41060;47.510;8.680;2022-12-07T10:48:39;11.50;;;6.13;;
55170;SDS011;41060;47.510;8.680;2022-12-07T10:51:18;13.60;;;6.63;;
55170;SDS011;41060;47.510;8.680;2022-12-07T10:53:57;13.15;;;6.10;;
55170;SDS011;41060;47.510;8.680;2022-12-07T10:56:40;14.32;;;6.47;;
55170;SDS011;41060;47.510;8.680;2022-12-07T10:59:25;9.60;;;5.45;;
55170;SDS011;41060;47.510;8.680;2022-12-07T11:02:06;20.20;;;6.07;;
55170;SDS011;41060;47.510;8.680;2022-12-07T11:04:56;11.70;;;5.43;;
55170;SDS011;41060;47.510;8.680;2022-12-07T11:07:34;12.27;;;5.47;;
55170;SDS011;41060;47.510;8.680;2022-12-07T11:10:08;16.27;;;7.68;;
55170;SDS011;41060;47.510;8.680;2022-12-07T11:12:47;12.45;;;6.43;;
55170;SDS011;41060;47.510;8.680;2022-12-07T11:15:23;10.27;;;6.00;;
55170;SDS011;41060;47.510;8.680;2022-12-07T11:17:53;8.90;;;5.82;;
55170;SDS011;41060;47.510;8.680;2022-12-07T11:20:33;8.63;;;5.38;;
55170;SDS011;41060;47.510;8.680;2022-12-07T11:23:09;8.68;;;4.97;;
55170;SDS011;41060;47.510;8.680;2022-12-07T11:25:45;12.75;;;6.95;;
55170;SDS011;41060;47.510;8.680;2022-12-07T11:28:23;9.10;;;4.47;;
55170;SDS011;41060;47.510;8.680;2022-12-07T11:31:03;9.35;;;4.70;;
55170;SDS011;41060;47.510;8.680;2022-12-07T11:33:41;4.95;;;2.78;;
55170;SDS011;41060;47.510;8.680;2022-12-07T11:36:18;8.52;;;4.72;;
55170;SDS011;41060;47.510;8.680;2022-12-07T11:38:58;11.63;;;4.97;;
55170;SDS011;41060;47.510;8.680;2022-12-07T11:41:36;6.95;;;4.22;;
55170;SDS011;41060;47.510;8.680;2022-12-07T11:44:07;8.07;;;4.93;;
55170;SDS011;41060;47.510;8.680;2022-12-07T11:46:46;14.98;;;6.32;;
55170;SDS011;41060;47.510;8.680;2022-12-07T11:49:19;6.68;;;3.17;;
55170;SDS011;41060;47.510;8.680;2022-12-07T11:51:52;11.88;;;5.25;;
55170;SDS011;41060;47.510;8.680;2022-12-07T11:54:25;10.65;;;4.60;;
55170;SDS011;41060;47.510;8.680;2022-12-07T11:56:55;15.95;;;7.00;;
55170;SDS011;41060;47.510;8.680;2022-12-07T11:59:29;8.27;;;4.43;;
55170;SDS011;41060;47.510;8.680;2022-12-07T12:02:01;8.55;;;4.00;;
55170;SDS011;41060;47.510;8.680;2022-12-07T12:04:49;11.15;;;4.47;;
55170;SDS011;41060;47.510;8.680;2022-12-07T12:07:24;7.85;;;3.72;;
55170;SDS011;41060;47.510;8.680;2022-12-07T12:09:53;8.10;;;4.82;;
55170;SDS011;41060;47.510;8.680;2022-12-07T12:12:39;10.25;;;4.63;;
55170;SDS011;41060;47.510;8.680;2022-12-07T12:15:20;5.20;;;3.58;;
55170;SDS011;41060;47.510;8.680;2022-12-07T12:18:00;10.48;;;4.53;;
55170;SDS011;41060;47.510;8.680;2022-12-07T12:20:39;11.20;;;4.35;;
55170;SDS011;41060;47.510;8.680;2022-12-07T12:23:13;9.38;;;4.65;;
55170;SDS011;41060;47.510;8.680;2022-12-07T12:25:44;7.40;;;4.60;;
55170;SDS011;41060;47.510;8.680;2022-12-07T12:28:20;9.95;;;4.10;;
55170;SDS011;41060;47.510;8.680;2022-12-07T12:36:18;6.05;;;3.30;;
55170;SDS011;41060;47.510;8.680;2022-12-07T12:39:09;4.90;;;2.58;;
55170;SDS011;41060;47.510;8.680;2022-12-07T12:41:51;6.00;;;2.67;;
55170;SDS011;41060;47.510;8.680;2022-12-07T12:44:39;7.65;;;4.10;;
55170;SDS011;41060;47.510;8.680;2022-12-07T12:50:21;7.13;;;3.83;;
55170;SDS011;41060;47.510;8.680;2022-12-07T12:52:59;5.15;;;3.80;;
55170;SDS011;41060;47.510;8.680;2022-12-07T13:03:59;9.07;;;3.97;;
55170;SDS011;41060;47.510;8.680;2022-12-07T13:06:34;4.00;;;3.08;;
55170;SDS011;41060;47.510;8.680;2022-12-07T13:09:03;7.10;;;3.35;;
55170;SDS011;41060;47.510;8.680;2022-12-07T13:11:32;5.60;;;2.92;;
55170;SDS011;41060;47.510;8.680;2022-12-07T13:17:09;4.90;;;2.58;;
55170;SDS011;41060;47.510;8.680;2022-12-07T13:22:42;9.05;;;3.47;;
55170;SDS011;41060;47.510;8.680;2022-12-07T13:25:30;10.73;;;4.13;;
55170;SDS011;41060;47.510;8.680;2022-12-07T13:28:07;6.32;;;4.30;;
55170;SDS011;41060;47.510;8.680;2022-12-07T13:30:42;5.80;;;3.55;;
55170;SDS011;41060;47.510;8.680;2022-12-07T13:33:15;7.97;;;4.88;;
55170;SDS011;41060;47.510;8.680;2022-12-07T13:35:44;7.28;;;3.97;;
55170;SDS011;41060;47.510;8.680;2022-12-07T13:38:16;7.10;;;3.88;;
55170;SDS011;41060;47.510;8.680;2022-12-07T13:40:59;4.75;;;2.60;;
55170;SDS011;41060;47.510;8.680;2022-12-07T13:43:27;5.78;;;3.38;;
55170;SDS011;41060;47.510;8.680;2022-12-07T13:45:56;7.55;;;3.30;;
55170;SDS011;41060;47.510;8.680;2022-12-07T13:48:27;5.97;;;2.80;;
55170;SDS011;41060;47.510;8.680;2022-12-07T13:50:59;6.78;;;3.75;;
55170;SDS011;41060;47.510;8.680;2022-12-07T13:53:27;7.88;;;3.90;;
55170;SDS011;41060;47.510;8.680;2022-12-07T13:55:55;4.78;;;3.38;;
55170;SDS011;41060;47.510;8.680;2022-12-07T13:58:23;7.40;;;2.92;;
55170;SDS011;41060;47.510;8.680;2022-12-07T14:00:50;6.22;;;4.65;;
55170;SDS011;41060;47.510;8.680;2022-12-07T14:03:25;5.18;;;2.35;;
55170;SDS011;41060;47.510;8.680;2022-12-07T14:06:03;6.88;;;3.70;;
55170;SDS011;41060;47.510;8.680;2022-12-07T14:08:43;7.15;;;3.22;;
55170;SDS011;41060;47.510;8.680;2022-12-07T14:11:12;4.38;;;2.63;;
55170;SDS011;41060;47.510;8.680;2022-12-07T14:13:44;5.20;;;2.70;;
55170;SDS011;41060;47.510;8.680;2022-12-07T14:16:21;8.27;;;3.40;;
55170;SDS011;41060;47.510;8.680;2022-12-07T14:18:52;5.13;;;4.10;;
55170;SDS011;41060;47.510;8.680;2022-12-07T14:21:20;7.55;;;3.10;;
55170;SDS011;41060;47.510;8.680;2022-12-07T14:24:08;7.13;;;3.60;;
55170;SDS011;41060;47.510;8.680;2022-12-07T14:26:41;8.20;;;3.78;;
55170;SDS011;41060;47.510;8.680;2022-12-07T14:29:18;5.40;;;3.22;;
55170;SDS011;41060;47.510;8.680;2022-12-07T14:31:50;6.47;;;3.05;;
55170;SDS011;41060;47.510;8.680;2022-12-07T14:34:20;5.20;;;2.90;;
55170;SDS011;41060;47.510;8.680;2022-12-07T14:36:48;10.75;;;3.85;;
55170;SDS011;41060;47.510;8.680;2022-12-07T14:39:15;6.82;;;2.63;;
55170;SDS011;41060;47.510;8.680;2022-12-07T14:41:42;6.72;;;3.95;;
55170;SDS011;41060;47.510;8.680;2022-12-07T14:44:18;6.63;;;4.38;;
55170;SDS011;41060;47.510;8.680;2022-12-07T14:46:46;6.80;;;3.53;;
55170;SDS011;41060;47.510;8.680;2022-12-07T14:49:12;11.02;;;4.47;;
55170;SDS011;41060;47.510;8.680;2022-12-07T14:51:41;6.00;;;2.40;;
55170;SDS011;41060;47.510;8.680;2022-12-07T14:54:13;6.55;;;3.60;;
55170;SDS011;41060;47.510;8.680;2022-12-07T14:56:42;4.82;;;3.20;;
55170;SDS011;41060;47.510;8.680;2022-12-07T14:59:10;7.50;;;3.80;;
55170;SDS011;41060;47.510;8.680;2022-12-07T15:01:40;4.75;;;3.10;;
55170;SDS011;41060;47.510;8.680;2022-12-07T15:04:07;7.85;;;3.60;;
55170;SDS011;41060;47.510;8.680;2022-12-07T15:06:34;4.63;;;3.17;;
55170;SDS011;41060;47.510;8.680;2022-12-07T15:09:02;7.68;;;4.18;;
55170;SDS011;41060;47.510;8.680;2022-12-07T15:11:30;6.25;;;3.67;;
55170;SDS011;41060;47.510;8.680;2022-12-07T15:13:56;6.25;;;2.65;;
55170;SDS011;41060;47.510;8.680;2022-12-07T15:16:37;5.75;;;2.92;;
55170;SDS011;41060;47.510;8.680;2022-12-07T15:19:05;30.63;;;4.63;;
55170;SDS011;41060;47.510;8.680;2022-12-07T15:21:35;8.25;;;3.42;;
55170;SDS011;41060;47.510;8.680;2022-12-07T15:24:04;7.25;;;3.97;;
55170;SDS011;41060;47.510;8.680;2022-12-07T15:26:31;5.45;;;2.88;;
55170;SDS011;41060;47.510;8.680;2022-12-07T15:28:58;6.60;;;3.03;;